FMNM/MJN METAR and TAF weather

Enter ICAO airport designator
Station Type Date Time Source
FMNM METAR 2019/06/17 13:00 UTC NOAA

FMNM 171300Z 14006KT 9999 FEW023 31/12 Q1016 NOSIG


Station Type Date Time Source
FMNM Decoded METAR 2019/06/17 13:00 UTC NOAA

Majunga, Madagascar (FMNM) 15-40S 046-21E 18M
Jun 17, 2019 - 09:00 AM EDT / 2019.06.17 1300 UTC
Wind: from the SE (140 degrees) at 7 MPH (6 KT):0
Visibility: greater than 7 mile(s):0
Sky conditions: mostly clear
Temperature: 87 F (31 C)
Dew Point: 53 F (12 C)
Relative Humidity: 31%
Pressure (altimeter): 30.00 in. Hg (1016 hPa)
ob: FMNM 171300Z 14006KT 9999 FEW023 31/12 Q1016 NOSIG
cycle: 13

Station Type Date Time Source
FMNM TAF 2019/06/17 12:02 UTC NOAA

TAF FMNM 171100Z 1712/1812 14010KT 9999 FEW023 SCT040

Example: see airport list